Latest Weather Observations for Karratha

IDW60801

Issued at 11:32 am WST Saturday 5 September 2015 (issued every 30 minutes, with the page automatically refreshed every 10 minutes)

About weather observations | Map of weather stations | Latest weather observations for WA | Other Formats
Station Details ID: 004083 Name: KARRATHA AERO Lat: -20.71 Lon: 116.77 Height: 5.3 m
Data from the previous 72 hours. | See also: Recent months at Karratha
Date/Time
WST
Temp
°C
App
Temp
°C
Dew
Point
Rel
Hum
%
Delta-T
°C
Wind Press
QNH
hPa
Press
MSL
hPa
Rain
since 9 am
mm
Dir
 
Spd
km/h
Gust
km/h
Spd
kts
Gust
kts
05/11:30am 28.6 24.5 6.1 24 11.8 WNW 17 20 9 11 1017.1 1017.1 0.0
05/11:00am 27.4 23.9 7.3 28 10.7 WNW 15 19 8 10 1017.7 1017.7 0.0
05/10:30am 25.8 21.9 8.8 34 9.2 WNW 19 22 10 12 1018.2 1018.2 0.0
05/10:00am 24.0 21.6 9.9 41 7.7 W 13 17 7 9 1018.5 1018.5 0.0
05/09:30am 23.4 21.7 11.1 46 6.9 W 11 15 6 8 1018.7 1018.7 0.0
05/09:00am 21.7 19.4 10.5 49 6.1 W 13 17 7 9 1018.5 1018.5 0.0
05/08:30am 20.9 19.1 11.0 53 5.4 WSW 11 13 6 7 1018.4 1018.4 0.0
05/08:00am 19.5 18.5 12.3 63 4.0 WSW 9 11 5 6 1018.3 1018.3 0.0
05/07:30am 17.7 16.6 13.0 74 2.6 SW 11 13 6 7 1018.0 1018.0 0.0
05/07:00am 15.3 14.7 13.5 89 1.0 SW 9 9 5 5 1017.9 1017.9 0.0
05/06:30am 15.1 14.4 13.1 88 1.1 SW 9 13 5 7 1017.7 1017.7 0.0
05/06:00am 16.7 15.2 14.3 86 1.4 WSW 15 17 8 9 1017.4 1017.4 0.0
05/05:30am 17.0 15.6 14.5 85 1.4 W 15 17 8 9 1017.2 1017.2 0.0
05/05:00am 17.3 16.0 14.9 86 1.4 W 15 17 8 9 1016.8 1016.8 0.0
05/04:30am 17.5 15.6 15.1 86 1.4 W 19 20 10 11 1016.5 1016.5 0.0
05/04:00am 17.8 15.8 15.4 86 1.4 W 20 22 11 12 1016.5 1016.5 0.0
05/03:30am 18.1 16.3 15.9 87 1.3 W 20 24 11 13 1016.5 1016.5 0.0
05/03:00am 18.4 16.2 16.0 86 1.4 W 22 26 12 14 1016.5 1016.5 0.0
05/02:30am 18.8 16.5 16.6 87 1.3 W 24 30 13 16 1016.7 1016.7 0.0
05/02:00am 18.8 17.0 16.9 89 1.1 W 22 28 12 15 1016.8 1016.8 0.0
05/01:30am 19.1 16.9 16.9 87 1.3 W 24 30 13 16 1017.0 1017.0 0.0
05/01:00am 19.2 17.0 16.8 86 1.4 WSW 24 30 13 16 1017.3 1017.3 0.0
05/12:30am 19.4 17.0 16.4 83 1.8 WSW 24 30 13 16 1017.6 1017.6 0.0
05/12:00am 19.5 17.4 16.2 81 2.0 WSW 22 28 12 15 1017.7 1017.7 0.0
 
Date/Time
WST
Temp
°C
App
Temp
°C
Dew
Point
Rel
Hum
%
Delta-T
°C
Wind Press
QNH
hPa
Press
MSL
hPa
Rain
since 9 am
mm
Dir
 
Spd
km/h
Gust
km/h
Spd
kts
Gust
kts
04/11:30pm 19.8 17.4 16.3 80 2.1 WSW 24 30 13 16 1017.8 1017.8 0.0
04/11:00pm 20.1 17.0 16.5 80 2.2 WSW 28 35 15 19 1017.8 1017.8 0.0
04/10:30pm 20.1 18.0 16.1 78 2.4 WSW 22 30 12 16 1017.8 1017.8 0.0
04/10:00pm 20.3 17.8 16.1 77 2.5 WSW 24 28 13 15 1017.9 1017.9 0.0
04/09:30pm 20.5 17.9 15.9 75 2.7 WSW 24 30 13 16 1018.0 1018.0 0.0
04/09:00pm 21.0 18.4 16.0 73 3.0 WSW 24 30 13 16 1018.0 1018.0 0.0
04/08:30pm 21.3 19.3 15.4 69 3.5 W 20 30 11 16 1017.9 1017.9 0.0
04/08:00pm 22.0 18.9 14.4 62 4.4 W 24 30 13 16 1017.4 1017.4 0.0
04/07:30pm 22.1 19.5 13.7 59 4.9 W 20 26 11 14 1017.1 1017.1 0.0
04/07:00pm 22.1 18.9 13.2 57 5.1 WNW 22 28 12 15 1016.9 1016.9 0.0
04/06:30pm 22.4 19.2 13.2 56 5.3 W 22 28 12 15 1016.6 1016.6 0.0
04/06:00pm 23.0 19.6 12.6 52 5.9 W 22 30 12 16 1016.2 1016.2 0.0
04/05:30pm 23.8 20.3 12.1 48 6.6 WNW 22 28 12 15 1015.8 1015.8 0.0
04/05:00pm 24.6 21.6 12.5 46 6.9 WNW 20 28 11 15 1015.5 1015.5 0.0
04/04:30pm 25.1 21.0 11.3 42 7.8 WNW 24 30 13 16 1015.4 1015.4 0.0
04/04:00pm 26.0 21.9 10.2 37 8.8 WNW 22 28 12 15 1015.4 1015.4 0.0
04/03:30pm 25.9 21.6 10.9 39 8.4 WNW 24 30 13 16 1015.5 1015.5 0.0
04/03:00pm 26.6 22.1 9.9 35 9.3 WNW 24 30 13 16 1015.6 1015.6 0.0
04/02:30pm 26.2 21.5 10.8 38 8.7 WNW 26 33 14 18 1015.8 1015.8 0.0
04/02:00pm 26.3 21.7 10.9 38 8.7 WNW 26 32 14 17 1016.0 1016.0 0.0
04/01:30pm 26.5 22.6 12.2 41 8.2 WNW 24 32 13 17 1016.2 1016.2 0.0
04/01:00pm 25.8 22.2 13.0 45 7.4 WNW 24 32 13 17 1016.4 1016.4 0.0
04/12:30pm 25.8 21.4 13.0 45 7.5 W 28 33 15 18 1016.8 1016.8 0.0
04/12:00pm 25.7 21.9 12.5 44 7.6 WNW 24 30 13 16 1017.0 1017.0 0.0
04/11:30am 25.6 21.0 9.8 37 8.7 WNW 24 30 13 16 1017.6 1017.6 0.0
04/11:00am 25.0 20.9 10.1 39 8.2 WNW 22 28 12 15 1017.9 1017.9 0.0
04/10:30am 24.3 21.0 11.6 45 7.2 W 20 24 11 13 1018.1 1018.1 0.0
04/10:00am 23.1 19.7 10.5 45 6.9 W 19 24 10 13 1018.3 1018.3 0.0
04/09:30am 21.6 18.8 11.3 52 5.7 W 17 20 9 11 1018.3 1018.3 0.0
04/09:00am 20.4 17.6 11.3 56 5.0 W 17 20 9 11 1018.3 1018.3 0.0
04/08:30am 19.3 17.0 13.0 67 3.6 WSW 17 19 9 10 1018.2 1018.2 0.0
04/08:00am 18.7 16.4 13.1 70 3.2 W 17 20 9 11 1017.9 1017.9 0.0
04/07:30am 18.2 16.4 13.3 73 2.8 WSW 15 19 8 10 1017.7 1017.7 0.0
04/07:00am 17.4 16.7 13.3 77 2.3 WSW 9 15 5 8 1017.4 1017.4 0.0
04/06:30am 15.9 14.3 12.8 82 1.7 WSW 13 15 7 8 1017.0 1017.0 0.0
04/06:00am 16.0 14.8 12.9 82 1.7 WSW 11 13 6 7 1016.9 1016.9 0.0
04/05:30am 16.0 14.4 12.9 82 1.7 WSW 13 15 7 8 1016.5 1016.5 0.0
04/05:00am 16.1 14.5 12.7 80 1.9 WSW 13 17 7 9 1016.2 1016.2 0.0
04/04:30am 16.6 14.7 12.9 79 2.1 WSW 15 17 8 9 1016.2 1016.2 0.0
04/04:00am 17.2 14.4 13.1 77 2.3 WSW 20 24 11 13 1016.1 1016.1 0.0
04/03:30am 17.8 15.2 13.7 77 2.3 WSW 20 24 11 13 1016.3 1016.3 0.0
04/03:00am 18.4 15.1 14.1 76 2.5 WSW 24 30 13 16 1016.4 1016.4 0.0
04/02:30am 19.1 16.2 15.0 77 2.4 WSW 24 30 13 16 1016.5 1016.5 0.0
04/02:00am 19.6 16.2 15.9 79 2.2 WSW 28 35 15 19 1016.7 1016.7 0.0
04/01:30am 19.4 17.4 16.4 83 1.8 WSW 22 28 12 15 1016.9 1016.9 0.0
04/01:00am 19.6 17.5 16.3 81 2.0 WSW 22 30 12 16 1017.2 1017.2 0.0
04/12:30am 19.5 17.7 15.6 78 2.3 WSW 19 24 10 13 1017.4 1017.4 0.0
04/12:00am 19.5 17.3 14.5 73 2.9 WSW 19 22 10 12 1017.5 1017.5 0.0
 
Date/Time
WST
Temp
°C
App
Temp
°C
Dew
Point
Rel
Hum
%
Delta-T
°C
Wind Press
QNH
hPa
Press
MSL
hPa
Rain
since 9 am
mm
Dir
 
Spd
km/h
Gust
km/h
Spd
kts
Gust
kts
03/11:30pm 19.8 16.9 13.0 65 3.8 WSW 20 24 11 13 1017.7 1017.7 0.0
03/11:00pm 19.8 17.1 13.0 65 3.8 WSW 19 20 10 11 1017.9 1017.9 0.0
03/10:30pm 20.5 17.3 13.0 62 4.3 WSW 22 26 12 14 1018.0 1018.0 0.0
03/10:00pm 20.9 18.3 15.0 69 3.5 WSW 22 30 12 16 1018.0 1018.0 0.0
03/09:30pm 21.3 19.4 15.8 71 3.3 WSW 20 26 11 14 1018.2 1018.2 0.0
03/09:00pm 21.5 19.6 15.3 68 3.7 WSW 19 24 10 13 1018.1 1018.1 0.0
03/08:30pm 21.8 19.6 14.9 65 4.1 WSW 20 24 11 13 1017.9 1017.9 0.0
03/08:00pm 21.9 20.0 15.3 66 3.9 W 19 24 10 13 1017.6 1017.6 0.0
03/07:30pm 22.1 20.4 15.7 67 3.8 W 19 22 10 12 1017.4 1017.4 0.0
03/07:00pm 22.5 20.7 15.6 65 4.1 W 19 24 10 13 1016.9 1016.9 0.0
03/06:30pm 22.9 20.5 14.5 59 5.0 WNW 20 24 11 13 1016.7 1016.7 0.0
03/06:00pm 23.4 21.4 14.9 59 5.0 WNW 19 24 10 13 1016.6 1016.6 0.0
03/05:30pm 24.1 22.7 15.6 59 5.1 WNW 17 20 9 11 1016.4 1016.4 0.0
03/05:00pm 24.8 23.2 14.9 54 5.9 WNW 17 22 9 12 1016.1 1016.1 0.0
03/04:30pm 25.5 24.1 15.5 54 6.1 NW 17 20 9 11 1016.0 1016.0 0.0
03/04:00pm 25.3 23.5 15.6 55 5.9 WNW 19 24 10 13 1016.0 1016.0 0.0
03/03:30pm 26.0 24.6 16.5 55 5.9 NW 19 26 10 14 1016.0 1016.0 0.0
03/03:00pm 26.3 25.5 14.1 47 7.2 N 11 17 6 9 1015.9 1015.9 0.0
03/02:30pm 25.9 22.6 9.7 36 8.9 NNE 17 20 9 11 1016.1 1016.1 0.0
03/02:00pm 26.7 23.1 10.0 35 9.3 NE 19 24 10 13 1016.2 1016.2 0.0
03/01:30pm 26.6 23.3 11.5 39 8.6 NE 20 24 11 13 1016.6 1016.6 0.0
03/01:00pm 26.8 22.9 9.6 34 9.5 NNE 20 24 11 13 1016.7 1016.7 0.0
03/12:30pm 25.8 22.9 13.0 45 7.5 NNE 20 26 11 14 1016.8 1016.8 0.0
03/12:00pm 25.7 22.6 12.2 43 7.7 NNE 20 26 11 14 1017.0 1017.0 0.0
03/11:30am 25.4 21.8 9.7 37 8.6 NNE 19 22 10 12 1017.3 1017.3 0.0
03/11:00am 25.7 24.0 12.5 44 7.6 NNE 13 19 7 10 1017.6 1017.6 0.0
03/10:30am 25.1 23.0 11.3 42 7.8 NE 13 20 7 11 1017.9 1017.9 0.0
03/10:00am 24.3 22.6 12.3 47 6.8 NE 13 20 7 11 1018.1 1018.1 0.0
03/09:30am 23.2 21.9 13.7 55 5.5 ENE 13 19 7 10 1018.1 1018.1 0.0
03/09:00am 22.5 21.1 14.4 60 4.7 ENE 15 19 8 10 1017.9 1017.9 0.0
03/08:30am 21.3 20.7 14.7 66 3.9 E 11 17 6 9 1017.8 1017.8 0.0
03/08:00am 20.6 20.9 14.9 70 3.3 ENE 7 11 4 6 1017.6 1017.6 0.0
03/07:30am 19.0 20.0 14.3 74 2.7 E 2 7 1 4 1017.4 1017.4 0.0
03/07:00am 15.5 15.4 12.1 80 1.8 ESE 4 6 2 3 1017.2 1017.2 0.0
03/06:30am 14.7 14.1 11.8 83 1.6 ESE 6 7 3 4 1017.0 1017.0 0.0
03/06:00am 14.9 14.2 11.9 82 1.6 SE 7 9 4 5 1016.5 1016.5 0.0
03/05:30am 15.6 15.0 12.4 81 1.8 SSE 7 9 4 5 1016.2 1016.2 0.0
03/05:00am 16.6 15.9 13.3 81 1.8 S 9 9 5 5 1016.0 1016.0 0.0
03/04:30am 16.7 15.6 13.0 79 2.1 S 11 11 6 6 1015.8 1015.8 0.0
03/04:00am 16.1 15.3 12.8 81 1.8 S 9 11 5 6 1015.9 1015.9 0.0
03/03:30am 16.5 15.4 13.2 81 1.8 S 11 13 6 7 1015.9 1015.9 0.0
03/03:00am 17.0 15.6 13.5 80 2.0 SSE 13 13 7 7 1016.0 1016.0 0.0
03/02:30am 17.1 15.8 13.8 81 1.9 S 13 15 7 8 1016.1 1016.1 0.0
03/02:00am 16.9 15.8 14.2 84 1.5 S 13 15 7 8 1016.3 1016.3 0.0
03/01:30am 16.9 18.0 13.4 80 2.0 CALM 0 0 0 0 1016.6 1016.6 0.0
03/01:00am 16.1 15.6 12.1 77 2.2 SSW 6 9 3 5 1016.8 1016.8 0.0
03/12:30am 16.1 14.5 11.7 75 2.4 S 11 11 6 6 1017.0 1017.0 0.0
03/12:00am 16.6 14.7 11.9 74 2.6 S 13 17 7 9 1017.2 1017.2 0.0
 
Date/Time
WST
Temp
°C
App
Temp
°C
Dew
Point
Rel
Hum
%
Delta-T
°C
Wind Press
QNH
hPa
Press
MSL
hPa
Rain
since 9 am
mm
Dir
 
Spd
km/h
Gust
km/h
Spd
kts
Gust
kts
02/11:30pm 17.2 15.7 13.1 77 2.3 S 13 15 7 8 1017.2 1017.2 0.0
02/11:00pm 17.5 17.4 13.4 77 2.3 SSW 6 7 3 4 1017.3 1017.3 0.0
02/10:30pm 18.2 18.2 13.7 75 2.6 SW 6 9 3 5 1017.3 1017.3 0.0
02/10:00pm 21.4 22.7 17.0 76 2.7 NW 6 9 3 5 1017.5 1017.5 0.0
02/09:30pm 21.9 22.5 16.8 73 3.1 NNW 9 13 5 7 1017.4 1017.4 0.0
02/09:00pm 22.1 22.3 16.8 72 3.2 NNW 11 15 6 8 1017.3 1017.3 0.0
02/08:30pm 22.4 22.0 16.2 68 3.8 NNW 13 19 7 10 1017.4 1017.4 0.0
02/08:00pm 22.5 21.3 14.1 59 4.9 N 13 17 7 9 1017.1 1017.1 0.0
02/07:30pm 22.5 21.4 13.0 55 5.4 N 11 17 6 9 1016.6 1016.6 0.0
02/07:00pm 21.1 20.0 12.0 56 5.1 NNE 9 13 5 7 1016.3 1016.3 0.0
02/06:30pm 21.7 21.1 13.6 60 4.7 NE 9 13 5 7 1016.1 1016.1 0.0
02/06:00pm 22.9 20.4 13.4 55 5.5 NNE 19 24 10 13 1015.5 1015.5 0.0
02/05:30pm 23.6 20.5 12.3 49 6.4 NNE 20 30 11 16 1015.3 1015.3 0.0
02/05:00pm 24.1 20.4 12.7 49 6.5 NNE 24 30 13 16 1015.1 1015.1 0.0
02/04:30pm 24.8 20.2 11.0 42 7.7 NNE 26 37 14 20 1014.7 1014.7 0.0
02/04:00pm 24.9 19.4 10.7 40 7.9 NE 30 39 16 21 1014.5 1014.5 0.0
02/03:30pm 26.0 21.5 11.4 40 8.3 NE 26 33 14 18 1014.8 1014.8 0.0
02/03:00pm 25.4 20.6 10.4 39 8.3 NE 26 33 14 18 1015.0 1015.0 0.0
02/02:30pm 25.6 21.3 10.6 39 8.4 NE 24 30 13 16 1015.1 1015.1 0.0
02/02:00pm 25.3 20.3 9.6 37 8.6 NE 26 32 14 17 1015.3 1015.3 0.0
02/01:30pm 26.2 20.7 9.1 34 9.3 NE 28 35 15 19 1015.8 1015.8 0.0
02/01:00pm 25.9 19.8 8.4 33 9.4 NE 30 35 16 19 1016.1 1016.1 0.0
02/12:30pm 26.4 20.2 9.3 34 9.4 ENE 32 35 17 19 1016.2 1016.2 0.0
02/12:00pm 26.4 18.7 5.4 26 10.7 ENE 35 43 19 23 1016.5 1016.5 0.0

Other Formats:

Comma delimited format used in spreadsheet applications
http://www.bom.gov.au/fwo/IDW60801/IDW60801.95307.axf

JavaScript Object Notation format (JSON) in row-major order
http://www.bom.gov.au/fwo/IDW60801/IDW60801.95307.json